createdAt,value
2022-10-30T00:01:05.079Z,12.20
2022-10-30T00:03:32.241Z,12.20
2022-10-30T00:05:59.275Z,12.10
2022-10-30T00:08:26.495Z,12.10
2022-10-30T00:10:54.124Z,12.10
2022-10-30T00:13:22.267Z,12.10
2022-10-30T00:15:51.287Z,12.00
2022-10-30T00:18:18.995Z,11.90
2022-10-30T00:20:46.181Z,11.90
2022-10-30T00:23:13.944Z,11.90
2022-10-30T00:25:40.957Z,11.90
2022-10-30T00:28:08.529Z,11.90
2022-10-30T00:30:35.765Z,11.90
2022-10-30T00:33:03.478Z,11.90
2022-10-30T00:35:31.366Z,11.80
2022-10-30T00:37:59.930Z,11.90
2022-10-30T00:40:27.265Z,11.90
2022-10-30T00:42:55.129Z,11.90
2022-10-30T00:45:22.210Z,11.80
2022-10-30T00:48:02.916Z,11.80
2022-10-30T00:50:36.677Z,11.80
2022-10-30T00:53:08.115Z,11.80
2022-10-30T00:55:42.460Z,11.80
2022-10-30T00:58:13.103Z,11.70
2022-10-30T01:00:43.860Z,11.80
2022-10-30T01:03:11.303Z,11.80
2022-10-30T01:05:39.404Z,11.80
2022-10-30T01:08:06.592Z,11.90
2022-10-30T01:10:33.782Z,11.90
2022-10-30T01:13:02.244Z,11.90
2022-10-30T01:15:38.289Z,11.90
2022-10-30T01:18:23.099Z,11.70
2022-10-30T01:21:13.111Z,11.80
2022-10-30T01:24:11.265Z,11.80
2022-10-30T01:26:56.073Z,11.70
2022-10-30T01:30:04.511Z,11.80
2022-10-30T01:33:30.115Z,11.80
2022-10-30T01:36:19.513Z,11.80
2022-10-30T01:38:56.930Z,11.90
2022-10-30T01:41:24.406Z,11.90
2022-10-30T01:44:03.677Z,11.90
2022-10-30T01:47:35.844Z,11.90
2022-10-30T01:50:25.452Z,12.00
2022-10-30T01:53:39.044Z,12.00
2022-10-30T01:56:49.007Z,11.90
2022-10-30T01:59:26.230Z,11.90
2022-10-30T02:01:53.491Z,12.00
2022-10-30T02:04:21.512Z,11.90
2022-10-30T02:06:51.744Z,11.90
2022-10-30T02:09:18.836Z,11.80
2022-10-30T02:11:51.293Z,11.80
2022-10-30T02:14:31.408Z,11.80
2022-10-30T02:17:01.646Z,11.80
2022-10-30T02:19:28.697Z,11.90
2022-10-30T02:21:55.947Z,11.90
2022-10-30T02:24:23.279Z,11.90
2022-10-30T02:26:50.301Z,12.00
2022-10-30T02:29:20.855Z,11.90
2022-10-30T02:31:48.720Z,11.90
2022-10-30T02:34:16.471Z,11.80
2022-10-30T02:36:44.043Z,11.90
2022-10-30T02:39:11.498Z,11.80
2022-10-30T02:41:38.944Z,11.80
2022-10-30T02:44:06.813Z,11.80
2022-10-30T02:46:35.511Z,11.80
2022-10-30T02:49:02.984Z,11.80
2022-10-30T02:51:32.168Z,11.80
2022-10-30T02:54:02.077Z,11.70
2022-10-30T02:56:30.804Z,11.70
2022-10-30T02:58:57.843Z,11.70
2022-10-30T03:01:25.017Z,11.70
2022-10-30T03:03:55.866Z,11.70
2022-10-30T03:06:23.467Z,11.70
2022-10-30T03:08:51.127Z,11.70
2022-10-30T03:11:20.004Z,11.70
2022-10-30T03:13:48.536Z,11.70
2022-10-30T03:16:24.452Z,11.80
2022-10-30T03:18:52.761Z,11.70
2022-10-30T03:21:22.473Z,11.70
2022-10-30T03:23:50.694Z,11.70
2022-10-30T03:26:19.316Z,11.70
2022-10-30T03:28:50.802Z,11.70
2022-10-30T03:31:19.244Z,11.70
2022-10-30T03:33:49.043Z,11.70
2022-10-30T03:36:16.231Z,11.70
2022-10-30T03:38:43.567Z,11.70
2022-10-30T03:41:14.271Z,11.80
2022-10-30T03:43:41.373Z,11.80
2022-10-30T03:46:10.002Z,11.80
2022-10-30T03:48:37.528Z,11.80
2022-10-30T03:51:04.971Z,11.70
2022-10-30T03:53:32.087Z,11.70
2022-10-30T03:56:02.054Z,11.80
2022-10-30T03:58:37.866Z,11.70
2022-10-30T04:01:09.926Z,11.70
2022-10-30T04:03:40.004Z,11.70
2022-10-30T04:06:09.257Z,11.70
2022-10-30T04:08:36.314Z,11.70
2022-10-30T04:11:04.345Z,11.70
2022-10-30T04:13:31.799Z,11.60
2022-10-30T04:15:58.893Z,11.60
2022-10-30T04:18:26.638Z,11.60
2022-10-30T04:20:55.174Z,11.70
2022-10-30T04:23:22.498Z,11.60
2022-10-30T04:25:49.781Z,11.70
2022-10-30T04:28:17.587Z,11.60
2022-10-30T04:30:45.913Z,11.50
2022-10-30T04:33:14.732Z,11.50
2022-10-30T04:35:42.558Z,11.60
2022-10-30T04:38:19.287Z,11.60
2022-10-30T04:40:47.489Z,11.50
2022-10-30T04:43:15.572Z,11.50
2022-10-30T04:45:46.027Z,11.60
2022-10-30T04:48:15.000Z,11.50
2022-10-30T04:50:43.915Z,11.40
2022-10-30T04:53:18.045Z,11.40
2022-10-30T04:55:47.722Z,11.40
2022-10-30T04:58:15.272Z,11.40
2022-10-30T05:00:46.029Z,11.40
2022-10-30T05:03:24.784Z,11.40
2022-10-30T05:06:02.144Z,11.40
2022-10-30T05:08:30.147Z,11.40
2022-10-30T05:10:59.782Z,11.50
2022-10-30T05:13:29.764Z,11.50
2022-10-30T05:15:57.997Z,11.60
2022-10-30T05:18:25.002Z,11.50
2022-10-30T05:20:52.766Z,11.40
2022-10-30T05:23:19.864Z,11.50
2022-10-30T05:25:47.001Z,11.40
2022-10-30T05:28:16.206Z,11.50
2022-10-30T05:30:53.884Z,11.40
2022-10-30T05:33:46.946Z,11.40
2022-10-30T05:36:14.243Z,11.50
2022-10-30T05:38:42.153Z,11.50
2022-10-30T05:41:14.291Z,11.50
2022-10-30T05:43:42.251Z,11.50
2022-10-30T05:46:09.310Z,11.40
2022-10-30T05:48:36.418Z,11.40
2022-10-30T05:51:04.477Z,11.40
2022-10-30T05:53:31.531Z,11.30
2022-10-30T05:55:59.950Z,11.20
2022-10-30T05:58:31.633Z,11.30
2022-10-30T06:01:06.311Z,11.30
2022-10-30T06:03:46.005Z,11.20
2022-10-30T06:06:13.382Z,11.30
2022-10-30T06:08:40.474Z,11.30
2022-10-30T06:11:36.869Z,11.30
2022-10-30T06:14:04.195Z,11.30
2022-10-30T06:16:45.579Z,11.30
2022-10-30T06:19:31.196Z,11.40
2022-10-30T06:22:09.962Z,11.40
2022-10-30T06:24:49.656Z,11.30
2022-10-30T06:27:24.564Z,11.40
2022-10-30T06:29:54.915Z,11.30
2022-10-30T06:32:22.453Z,11.30
2022-10-30T06:34:50.106Z,11.30
2022-10-30T06:37:18.117Z,11.40
2022-10-30T06:39:45.456Z,11.40
2022-10-30T06:42:31.703Z,11.40
2022-10-30T06:45:08.238Z,11.40
2022-10-30T06:47:36.497Z,11.40
2022-10-30T06:50:05.166Z,11.50
2022-10-30T06:52:32.236Z,11.50
2022-10-30T06:55:00.365Z,11.40
2022-10-30T06:57:45.709Z,11.30
2022-10-30T07:00:31.376Z,11.30
2022-10-30T07:03:17.286Z,11.30
2022-10-30T07:05:44.465Z,11.30
2022-10-30T07:08:12.090Z,11.40
2022-10-30T07:10:39.600Z,11.40
2022-10-30T07:13:32.981Z,11.30
2022-10-30T07:16:08.772Z,11.30
2022-10-30T07:18:40.166Z,11.40
2022-10-30T07:21:07.777Z,11.30
2022-10-30T07:23:34.890Z,11.30
2022-10-30T07:26:22.139Z,11.20
2022-10-30T07:28:50.961Z,11.20
2022-10-30T07:31:42.139Z,11.20
2022-10-30T07:34:18.788Z,11.10
2022-10-30T07:36:58.087Z,11.00
2022-10-30T07:39:43.358Z,11.10
2022-10-30T07:42:26.168Z,11.00
2022-10-30T07:45:29.092Z,11.10
2022-10-30T07:48:14.647Z,11.20
2022-10-30T07:50:46.206Z,11.10
2022-10-30T07:53:13.244Z,11.00
2022-10-30T07:55:42.967Z,11.00
2022-10-30T07:58:30.197Z,10.90
2022-10-30T08:01:23.738Z,10.80
2022-10-30T08:03:51.046Z,10.80
2022-10-30T08:06:27.360Z,10.70
2022-10-30T08:08:54.898Z,11.00
2022-10-30T08:11:27.050Z,10.80
2022-10-30T08:13:54.906Z,10.90
2022-10-30T08:16:22.525Z,10.90
2022-10-30T08:18:50.452Z,10.90
2022-10-30T08:21:20.348Z,11.10
2022-10-30T08:23:57.187Z,11.30
2022-10-30T08:26:27.823Z,11.10
2022-10-30T08:28:55.008Z,11.30
2022-10-30T08:31:23.651Z,11.20
2022-10-30T08:34:13.453Z,11.20
2022-10-30T08:36:49.471Z,11.20
2022-10-30T08:39:17.810Z,11.40
2022-10-30T08:41:58.233Z,11.50
2022-10-30T08:44:26.873Z,11.60
2022-10-30T08:47:29.563Z,11.90
2022-10-30T08:49:56.774Z,12.10
2022-10-30T08:52:28.000Z,11.70
2022-10-30T08:54:56.774Z,11.40
2022-10-30T08:57:26.614Z,11.50
2022-10-30T08:59:55.726Z,11.60
2022-10-30T09:02:52.011Z,11.90
2022-10-30T09:05:37.984Z,12.00
2022-10-30T09:08:28.689Z,12.30
2022-10-30T09:11:11.445Z,12.10
2022-10-30T09:13:40.076Z,12.10
2022-10-30T09:16:07.719Z,12.30
2022-10-30T09:18:37.021Z,12.20
2022-10-30T09:21:05.484Z,12.20
2022-10-30T09:23:38.323Z,12.30
2022-10-30T09:26:29.278Z,12.80
2022-10-30T09:29:02.616Z,13.00
2022-10-30T09:31:52.899Z,12.90
2022-10-30T09:34:20.690Z,13.20
2022-10-30T09:36:55.398Z,13.30
2022-10-30T09:39:23.435Z,13.60
2022-10-30T09:42:38.298Z,13.60
2022-10-30T09:45:46.399Z,13.60
2022-10-30T09:48:57.262Z,14.30
2022-10-30T09:51:58.775Z,14.00
2022-10-30T09:55:02.793Z,14.30
2022-10-30T09:58:28.299Z,14.00
2022-10-30T10:01:25.941Z,14.00
2022-10-30T10:04:26.754Z,14.50
2022-10-30T10:07:32.843Z,14.80
2022-10-30T10:10:20.482Z,15.00
2022-10-30T10:13:00.250Z,14.90
2022-10-30T10:15:47.475Z,15.70
2022-10-30T10:18:22.280Z,16.40
2022-10-30T10:20:55.550Z,16.70
2022-10-30T10:23:33.995Z,17.30
2022-10-30T10:26:14.811Z,16.70
2022-10-30T10:29:25.079Z,16.80
2022-10-30T10:32:23.958Z,16.90
2022-10-30T10:35:21.071Z,18.30
2022-10-30T10:38:32.644Z,19.10
2022-10-30T10:41:24.872Z,19.50
2022-10-30T10:44:37.093Z,19.40
2022-10-30T10:47:33.022Z,19.00
2022-10-30T10:50:22.026Z,19.50
2022-10-30T10:53:07.361Z,19.90
2022-10-30T10:55:39.073Z,19.90
2022-10-30T10:58:39.241Z,20.00
2022-10-30T11:01:14.349Z,20.60
2022-10-30T11:04:24.083Z,20.40
2022-10-30T11:06:54.161Z,20.00
2022-10-30T11:09:23.098Z,20.20
2022-10-30T11:11:52.606Z,21.30
2022-10-30T11:14:22.094Z,21.50
2022-10-30T11:17:19.582Z,21.50
2022-10-30T11:19:51.826Z,21.00
2022-10-30T11:22:33.847Z,20.80
2022-10-30T11:25:28.593Z,21.30
2022-10-30T11:28:01.445Z,21.30
2022-10-30T11:30:29.102Z,22.10
2022-10-30T11:32:58.035Z,23.00
2022-10-30T11:35:26.374Z,22.70
2022-10-30T11:38:14.278Z,22.10
2022-10-30T11:40:48.589Z,22.30
2022-10-30T11:43:20.410Z,20.60
2022-10-30T11:45:48.265Z,20.70
2022-10-30T11:48:31.915Z,20.80
2022-10-30T11:51:01.347Z,20.30
2022-10-30T11:53:42.294Z,21.40
2022-10-30T11:56:19.421Z,22.50
2022-10-30T11:59:05.688Z,24.00
2022-10-30T12:01:36.347Z,23.60
2022-10-30T12:04:35.809Z,22.60
2022-10-30T12:07:18.837Z,22.90
2022-10-30T12:09:47.755Z,23.60
2022-10-30T12:12:29.080Z,23.20
2022-10-30T12:14:56.218Z,22.80
2022-10-30T12:17:23.590Z,23.00
2022-10-30T12:19:53.066Z,23.00
2022-10-30T12:22:30.923Z,22.80
2022-10-30T12:25:04.247Z,23.10
2022-10-30T12:27:36.061Z,23.30
2022-10-30T12:30:21.382Z,22.50
2022-10-30T12:33:12.599Z,22.60
2022-10-30T12:36:05.117Z,23.00
2022-10-30T12:39:12.473Z,23.10
2022-10-30T12:42:08.290Z,23.90
2022-10-30T12:44:45.875Z,24.20
2022-10-30T12:47:36.986Z,24.50
2022-10-30T12:50:19.196Z,25.10
2022-10-30T12:53:15.703Z,24.90
2022-10-30T12:55:54.701Z,23.60
2022-10-30T12:58:54.902Z,22.60
2022-10-30T13:01:49.707Z,22.30
2022-10-30T13:04:24.444Z,22.50
2022-10-30T13:07:26.544Z,23.00
2022-10-30T13:10:41.036Z,23.50
2022-10-30T13:13:28.069Z,25.00
2022-10-30T13:15:58.210Z,26.60
2022-10-30T13:18:27.131Z,25.30
2022-10-30T13:21:11.752Z,24.40
2022-10-30T13:24:20.961Z,24.10
2022-10-30T13:26:55.831Z,25.10
2022-10-30T13:29:45.732Z,26.20
2022-10-30T13:32:59.528Z,26.40
2022-10-30T13:35:49.664Z,25.60
2022-10-30T13:39:01.937Z,26.10
2022-10-30T13:42:10.919Z,25.00
2022-10-30T13:45:20.330Z,25.20
2022-10-30T13:48:22.719Z,24.50
2022-10-30T13:51:19.015Z,24.30
2022-10-30T13:53:49.690Z,26.00
2022-10-30T13:56:18.994Z,26.40
2022-10-30T13:59:12.042Z,26.20
2022-10-30T14:01:49.409Z,26.60
2022-10-30T14:04:26.664Z,27.50
2022-10-30T14:08:06.370Z,27.60
2022-10-30T14:10:54.627Z,27.60
2022-10-30T14:14:05.597Z,28.10
2022-10-30T14:17:10.230Z,27.50
2022-10-30T14:20:21.616Z,27.90
2022-10-30T14:23:08.961Z,27.70
2022-10-30T14:25:36.182Z,26.80
2022-10-30T14:28:03.415Z,26.80
2022-10-30T14:30:30.709Z,26.20
2022-10-30T14:32:58.052Z,25.70
2022-10-30T14:35:37.239Z,25.30
2022-10-30T14:38:34.665Z,26.20
2022-10-30T14:41:31.677Z,26.70
2022-10-30T14:44:27.622Z,27.40
2022-10-30T14:47:32.819Z,27.50
2022-10-30T14:50:18.644Z,27.50
2022-10-30T14:53:12.632Z,27.30
2022-10-30T14:56:20.130Z,27.40
2022-10-30T14:59:33.514Z,26.90
2022-10-30T15:02:30.016Z,26.10
2022-10-30T15:05:37.103Z,25.90
2022-10-30T15:08:41.760Z,25.00
2022-10-30T15:11:42.881Z,24.70
2022-10-30T15:14:54.963Z,24.60
2022-10-30T15:17:36.341Z,23.70
2022-10-30T15:20:07.602Z,23.10
2022-10-30T15:22:35.721Z,22.80
2022-10-30T15:25:04.265Z,22.60
2022-10-30T15:27:33.095Z,22.10
2022-10-30T15:30:02.316Z,22.40
2022-10-30T15:32:29.454Z,22.40
2022-10-30T15:35:05.292Z,22.40
2022-10-30T15:37:32.712Z,22.90
2022-10-30T15:40:19.826Z,22.70
2022-10-30T15:42:48.569Z,21.90
2022-10-30T15:45:32.722Z,21.30
2022-10-30T15:48:24.503Z,20.70
2022-10-30T15:51:06.851Z,20.00
2022-10-30T15:53:50.310Z,19.30
2022-10-30T15:57:17.939Z,18.90
2022-10-30T15:59:35.366Z,18.70
2022-10-30T16:02:02.581Z,18.50
2022-10-30T16:04:36.867Z,18.30
2022-10-30T16:07:22.011Z,18.00
2022-10-30T16:09:57.579Z,17.70
2022-10-30T16:12:26.964Z,17.60
2022-10-30T16:14:58.132Z,17.50
2022-10-30T16:17:26.426Z,17.30
2022-10-30T16:19:56.922Z,17.10
2022-10-30T16:22:44.337Z,17.00
2022-10-30T16:25:13.091Z,16.90
2022-10-30T16:27:44.970Z,16.70
2022-10-30T16:30:16.294Z,16.60
2022-10-30T16:32:52.536Z,16.50
2022-10-30T16:35:21.844Z,16.50
2022-10-30T16:37:50.725Z,16.30
2022-10-30T16:40:22.654Z,16.20
2022-10-30T16:43:01.940Z,16.20
2022-10-30T16:45:49.614Z,16.00
2022-10-30T16:48:27.679Z,16.00
2022-10-30T16:51:03.422Z,15.80
2022-10-30T16:53:31.328Z,15.80
2022-10-30T16:55:59.871Z,15.80
2022-10-30T16:58:31.910Z,15.60
2022-10-30T17:01:06.005Z,15.60
2022-10-30T17:03:39.753Z,15.50
2022-10-30T17:06:25.081Z,15.50
2022-10-30T17:08:53.738Z,15.40
2022-10-30T17:11:35.547Z,15.30
2022-10-30T17:14:07.209Z,15.40
2022-10-30T17:16:39.319Z,15.40
2022-10-30T17:19:38.948Z,15.30
2022-10-30T17:22:12.893Z,15.30
2022-10-30T17:24:40.125Z,15.20
2022-10-30T17:27:25.878Z,15.20
2022-10-30T17:29:53.849Z,15.20
2022-10-30T17:32:26.180Z,15.10
2022-10-30T17:35:03.025Z,15.00
2022-10-30T17:37:30.114Z,14.80
2022-10-30T17:39:57.216Z,14.80
2022-10-30T17:42:24.335Z,14.70
2022-10-30T17:44:51.484Z,14.70
2022-10-30T17:47:20.116Z,14.60
2022-10-30T17:49:49.457Z,14.60
2022-10-30T17:52:19.615Z,14.50
2022-10-30T17:54:46.955Z,14.40
2022-10-30T17:57:15.464Z,14.30
2022-10-30T17:59:43.428Z,14.30
2022-10-30T18:02:14.402Z,14.20
2022-10-30T18:04:44.938Z,14.10
2022-10-30T18:07:13.245Z,14.00
2022-10-30T18:09:40.817Z,14.00
2022-10-30T18:12:12.257Z,14.00
2022-10-30T18:14:39.352Z,14.00
2022-10-30T18:17:06.756Z,14.00
2022-10-30T18:19:33.937Z,14.00
2022-10-30T18:22:00.969Z,13.90
2022-10-30T18:24:27.989Z,13.80
2022-10-30T18:26:55.290Z,13.80
2022-10-30T18:29:22.375Z,13.80
2022-10-30T18:31:49.391Z,13.80
2022-10-30T18:34:21.130Z,13.70
2022-10-30T18:36:48.709Z,13.60
2022-10-30T18:39:15.795Z,13.60
2022-10-30T18:41:44.919Z,13.60
2022-10-30T18:44:16.571Z,13.60
2022-10-30T18:46:44.188Z,13.60
2022-10-30T18:49:11.442Z,13.50
2022-10-30T18:51:38.752Z,13.50
2022-10-30T18:54:14.098Z,13.40
2022-10-30T18:56:41.443Z,13.30
2022-10-30T18:59:08.472Z,13.20
2022-10-30T19:01:35.708Z,13.30
2022-10-30T19:04:04.554Z,13.10
2022-10-30T19:06:34.588Z,13.00
2022-10-30T19:09:02.246Z,13.00
2022-10-30T19:11:31.822Z,13.00
2022-10-30T19:13:59.867Z,12.90
2022-10-30T19:16:27.022Z,12.90
2022-10-30T19:18:54.229Z,12.80
2022-10-30T19:21:24.762Z,12.90
2022-10-30T19:23:51.893Z,12.80
2022-10-30T19:26:18.913Z,12.90
2022-10-30T19:28:46.016Z,12.90
2022-10-30T19:31:18.370Z,12.90
2022-10-30T19:33:46.209Z,12.80
2022-10-30T19:36:31.356Z,12.80
2022-10-30T19:38:58.628Z,12.60
2022-10-30T19:41:26.485Z,12.50
2022-10-30T19:43:54.116Z,12.40
2022-10-30T19:46:21.347Z,12.50
2022-10-30T19:48:57.400Z,12.60
2022-10-30T19:51:25.828Z,12.70
2022-10-30T19:53:53.988Z,12.50
2022-10-30T19:56:21.649Z,12.50
2022-10-30T19:58:49.298Z,12.40
2022-10-30T20:01:16.873Z,12.40
2022-10-30T20:03:44.093Z,12.30
2022-10-30T20:06:12.719Z,12.40
2022-10-30T20:08:40.043Z,12.30
2022-10-30T20:11:07.495Z,12.50
2022-10-30T20:13:34.581Z,12.50
2022-10-30T20:16:04.942Z,12.40
2022-10-30T20:18:34.383Z,12.30
2022-10-30T20:21:04.433Z,12.30
2022-10-30T20:23:31.469Z,12.20
2022-10-30T20:26:02.660Z,12.10
2022-10-30T20:28:40.044Z,12.00
2022-10-30T20:31:10.788Z,12.00
2022-10-30T20:33:38.151Z,11.90
2022-10-30T20:36:05.841Z,11.90
2022-10-30T20:38:34.398Z,11.80
2022-10-30T20:41:03.354Z,11.90
2022-10-30T20:43:38.871Z,11.90
2022-10-30T20:46:09.378Z,11.90
2022-10-30T20:48:37.974Z,11.90
2022-10-30T20:51:06.878Z,11.90
2022-10-30T20:53:34.055Z,11.80
2022-10-30T20:56:01.068Z,11.90
2022-10-30T20:58:28.282Z,11.90
2022-10-30T21:00:58.182Z,11.90
2022-10-30T21:03:26.966Z,11.90
2022-10-30T21:05:58.888Z,11.80
2022-10-30T21:08:31.473Z,11.80
2022-10-30T21:11:06.427Z,11.70
2022-10-30T21:13:34.728Z,11.60
2022-10-30T21:16:03.530Z,11.60
2022-10-30T21:18:30.865Z,11.70
2022-10-30T21:21:02.074Z,11.60
2022-10-30T21:23:29.223Z,11.60
2022-10-30T21:26:07.526Z,11.70
2022-10-30T21:28:34.634Z,11.70
2022-10-30T21:31:07.209Z,11.80
2022-10-30T21:33:35.678Z,11.80
2022-10-30T21:36:16.888Z,11.70
2022-10-30T21:38:47.290Z,11.70
2022-10-30T21:41:17.429Z,11.70
2022-10-30T21:43:48.747Z,11.70
2022-10-30T21:46:15.752Z,11.70
2022-10-30T21:48:42.901Z,11.60
2022-10-30T21:51:15.358Z,11.70
2022-10-30T21:53:43.125Z,11.60
2022-10-30T21:56:15.613Z,11.50
2022-10-30T21:58:42.954Z,11.40
2022-10-30T22:01:34.805Z,11.40
2022-10-30T22:04:03.945Z,11.40
2022-10-30T22:06:41.283Z,11.40
2022-10-30T22:09:15.963Z,11.50
2022-10-30T22:11:43.414Z,11.50
2022-10-30T22:14:10.921Z,11.50
2022-10-30T22:16:39.491Z,11.50
2022-10-30T22:19:08.100Z,11.50
2022-10-30T22:21:35.317Z,11.60
2022-10-30T22:24:03.485Z,11.70
2022-10-30T22:26:31.074Z,11.80
2022-10-30T22:28:59.964Z,11.90
2022-10-30T22:31:29.563Z,11.90
2022-10-30T22:33:58.538Z,12.00
2022-10-30T22:36:33.375Z,11.90
2022-10-30T22:39:02.292Z,11.90
2022-10-30T22:41:34.413Z,11.90
2022-10-30T22:44:08.361Z,11.90
2022-10-30T22:46:36.885Z,12.00
2022-10-30T22:49:04.279Z,12.00
2022-10-30T22:51:33.332Z,12.00
2022-10-30T22:54:02.234Z,12.00
2022-10-30T22:56:31.974Z,11.90
2022-10-30T22:59:02.581Z,12.00
2022-10-30T23:01:31.764Z,11.90
2022-10-30T23:04:00.869Z,11.80
2022-10-30T23:06:29.593Z,11.90
2022-10-30T23:08:59.283Z,11.90
2022-10-30T23:11:27.651Z,11.90
2022-10-30T23:13:55.593Z,11.80
2022-10-30T23:16:24.726Z,11.80
2022-10-30T23:18:54.010Z,11.80
2022-10-30T23:21:23.935Z,11.80
2022-10-30T23:23:51.320Z,11.80
2022-10-30T23:26:27.821Z,11.80
2022-10-30T23:28:56.266Z,11.80
2022-10-30T23:31:33.639Z,11.90
2022-10-30T23:34:03.225Z,11.90
2022-10-30T23:36:30.448Z,11.80
2022-10-30T23:39:00.433Z,11.80
2022-10-30T23:41:29.793Z,11.90
2022-10-30T23:43:58.641Z,11.90
2022-10-30T23:46:26.406Z,11.90
2022-10-30T23:48:53.753Z,11.80
2022-10-30T23:51:21.115Z,11.90
2022-10-30T23:53:48.808Z,11.90
2022-10-30T23:56:16.535Z,11.90
2022-10-30T23:58:49.242Z,11.80
